Time;durP1;ratioP1;P1;durP2;ratioP2;P2;SDS_P1;SDS_P2;PMS_P1;PMS_P2;Temp;Humidity;BMP_temperature;BMP_pressure;BME280_temperature;BME280_humidity;BME280_pressure;Samples;Min_cycle;Max_cycle;Signal;HPM_P1;HPM_P2
2022/03/11 00:00:05;;;;;;;13.43;3.28;;;21.30;98.90;;;;;;5011725;28;20084;-70
2022/03/11 00:02:34;;;;;;;8.68;1.60;;;21.30;99.20;;;;;;5010138;28;20025;-70
2022/03/11 00:05:02;;;;;;;9.95;2.33;;;21.40;99.10;;;;;;5011561;28;20394;-71
2022/03/11 00:07:30;;;;;;;13.07;2.13;;;21.50;98.60;;;;;;5011882;28;20018;-70
2022/03/11 00:09:57;;;;;;;8.32;1.75;;;21.60;98.50;;;;;;5011433;28;20071;-71
2022/03/11 00:12:24;;;;;;;10.70;1.60;;;21.60;98.40;;;;;;5011342;28;20030;-75
2022/03/11 00:14:52;;;;;;;11.38;2.22;;;21.70;98.40;;;;;;5011204;28;20101;-71
2022/03/11 00:17:19;;;;;;;9.00;1.88;;;21.80;98.40;;;;;;5011249;28;20113;-74
2022/03/11 00:19:46;;;;;;;8.63;1.98;;;21.90;97.90;;;;;;5011335;28;20025;-75
2022/03/11 00:22:14;;;;;;;15.77;2.92;;;22.00;97.70;;;;;;5011198;28;20105;-72
2022/03/11 00:24:42;;;;;;;8.75;2.78;;;22.00;97.90;;;;;;5010007;28;20026;-73
2022/03/11 00:27:09;;;;;;;7.65;1.85;;;22.00;97.70;;;;;;5011443;28;20509;-73
2022/03/11 00:29:36;;;;;;;7.70;2.38;;;22.20;97.60;;;;;;5011715;28;20026;-76
2022/03/11 00:32:04;;;;;;;9.43;2.55;;;22.20;97.30;;;;;;5011656;28;20034;-73
2022/03/11 00:34:31;;;;;;;7.00;1.83;;;22.20;96.90;;;;;;5015184;28;20030;-72
2022/03/11 00:36:58;;;;;;;7.95;1.45;;;22.30;96.50;;;;;;5015320;28;20072;-72
2022/03/11 00:39:26;;;;;;;9.50;1.95;;;22.40;96.70;;;;;;5014850;28;20057;-73
2022/03/11 00:41:53;;;;;;;8.95;1.88;;;22.50;96.50;;;;;;5014604;28;20060;-69
2022/03/11 00:44:20;;;;;;;9.32;1.40;;;22.60;96.30;;;;;;5014957;28;20048;-71
2022/03/11 00:46:48;;;;;;;10.73;1.75;;;22.80;96.10;;;;;;5014936;28;20021;-73
2022/03/11 00:49:15;;;;;;;10.50;2.00;;;22.90;95.40;;;;;;5015246;28;20030;-75
2022/03/11 00:51:42;;;;;;;9.40;1.73;;;23.00;95.30;;;;;;5015112;28;20026;-73
2022/03/11 00:54:10;;;;;;;11.45;1.30;;;23.00;95.20;;;;;;5014795;28;20049;-71
2022/03/11 00:56:37;;;;;;;10.40;1.48;;;23.00;95.20;;;;;;5014450;28;20041;-73
2022/03/11 00:59:06;;;;;;;6.70;1.08;;;23.00;95.10;;;;;;5015098;28;20018;-70
2022/03/11 01:01:34;;;;;;;9.63;1.83;;;23.10;95.30;;;;;;5015114;28;20087;-73
2022/03/11 01:04:01;;;;;;;8.65;2.40;;;23.30;94.90;;;;;;5014111;28;20444;-70
2022/03/11 01:06:28;;;;;;;7.57;1.38;;;23.40;94.50;;;;;;5013753;28;20029;-69
2022/03/11 01:08:55;;;;;;;5.82;1.15;;;23.50;93.40;;;;;;5015158;28;20529;-72
2022/03/11 01:11:23;;;;;;;7.85;1.95;;;23.40;93.20;;;;;;5014887;28;20018;-71
2022/03/11 01:13:50;;;;;;;11.30;1.52;;;23.40;94.60;;;;;;5014568;28;20097;-74
2022/03/11 01:16:17;;;;;;;8.90;1.85;;;23.40;94.20;;;;;;5014241;28;20030;-72
2022/03/11 01:18:45;;;;;;;5.88;1.08;;;23.50;94.80;;;;;;5014513;28;20102;-72
2022/03/11 01:21:13;;;;;;;6.68;1.50;;;23.70;93.90;;;;;;5014307;28;20029;-73
2022/03/11 01:23:40;;;;;;;8.75;2.35;;;23.80;93.00;;;;;;5014033;28;20029;-71
2022/03/11 01:26:07;;;;;;;10.15;1.30;;;23.90;93.90;;;;;;5014004;28;20547;-70
2022/03/11 01:28:35;;;;;;;2.72;1.00;;;24.10;93.50;;;;;;5014285;28;20029;-71
2022/03/11 01:31:02;;;;;;;10.07;1.98;;;24.30;92.50;;;;;;5014104;28;20040;-71
2022/03/11 01:33:30;;;;;;;8.05;1.17;;;24.40;92.60;;;;;;5013991;28;20056;-71
2022/03/11 01:35:57;;;;;;;9.82;2.00;;;24.50;92.20;;;;;;5013936;28;20028;-71
2022/03/11 01:38:24;;;;;;;9.95;1.40;;;24.60;92.20;;;;;;5013926;28;20021;-70
2022/03/11 01:40:51;;;;;;;9.65;2.05;;;24.90;92.50;;;;;;5014260;28;20018;-71
2022/03/11 01:43:19;;;;;;;10.40;1.75;;;25.00;92.20;;;;;;5014631;28;20038;-72
2022/03/11 01:45:46;;;;;;;8.75;1.45;;;25.10;92.00;;;;;;5012797;28;20022;-72
2022/03/11 01:48:14;;;;;;;9.10;1.27;;;25.30;91.80;;;;;;5013279;28;20105;-71
2022/03/11 01:50:42;;;;;;;6.63;2.08;;;25.30;91.40;;;;;;5014046;28;20033;-71
2022/03/11 01:53:11;;;;;;;5.45;1.55;;;25.30;90.60;;;;;;5014342;28;20347;-71
2022/03/11 01:55:39;;;;;;;8.73;1.23;;;25.40;91.30;;;;;;5012132;28;20025;-72
2022/03/11 01:58:07;;;;;;;4.65;1.20;;;25.60;90.60;;;;;;5012137;28;20657;-71
2022/03/11 02:00:38;;;;;;;9.88;1.38;;;25.50;88.30;;;;;;5011680;28;20026;-72
2022/03/11 02:03:08;;;;;;;10.00;1.42;;;25.70;90.40;;;;;;5011067;28;20030;-72
2022/03/11 02:05:36;;;;;;;9.90;1.38;;;26.00;90.80;;;;;;5012092;28;20024;-71
2022/03/11 02:08:03;;;;;;;6.53;0.80;;;26.00;90.00;;;;;;5012062;28;20140;-72
2022/03/11 02:10:30;;;;;;;7.35;1.40;;;25.80;90.10;;;;;;5012376;28;20030;-73
2022/03/11 02:12:58;;;;;;;6.30;1.63;;;25.70;90.10;;;;;;5013677;28;20033;-72
2022/03/11 02:15:26;;;;;;;6.47;1.85;;;25.40;90.40;;;;;;5013929;28;20021;-73
2022/03/11 02:17:53;;;;;;;8.32;1.30;;;25.60;91.60;;;;;;5013715;28;20030;-71
2022/03/11 02:20:20;;;;;;;5.28;0.90;;;26.00;91.10;;;;;;5013743;28;20374;-72
2022/03/11 02:22:51;;;;;;;5.32;1.10;;;26.30;87.50;;;;;;5013708;28;20072;-72
2022/03/11 02:25:18;;;;;;;8.05;1.45;;;26.40;89.00;;;;;;5013451;28;20521;-71
2022/03/11 02:27:49;;;;;;;8.18;1.33;;;26.30;89.80;;;;;;5013266;28;20030;-72
2022/03/11 02:30:20;;;;;;;9.18;1.58;;;26.40;88.20;;;;;;5013221;28;20021;-71
2022/03/11 02:32:48;;;;;;;7.43;1.20;;;26.50;90.10;;;;;;5013389;28;20018;-72
2022/03/11 02:35:18;;;;;;;7.13;1.20;;;26.60;87.60;;;;;;5013477;28;20386;-72
2022/03/11 02:37:46;;;;;;;8.48;1.23;;;26.70;90.10;;;;;;5013176;28;20022;-72
2022/03/11 02:40:13;;;;;;;4.75;1.30;;;26.90;88.30;;;;;;5013240;28;20037;-74
2022/03/11 02:42:41;;;;;;;10.52;1.55;;;26.90;90.00;;;;;;5012925;28;20068;-72
2022/03/11 02:45:09;;;;;;;6.68;1.52;;;27.10;88.00;;;;;;5012958;28;20030;-74
2022/03/11 02:47:36;;;;;;;11.90;1.70;;;27.00;88.30;;;;;;5012781;28;20033;-71
2022/03/11 02:50:05;;;;;;;10.73;1.80;;;27.00;87.60;;;;;;5013031;28;20469;-73
2022/03/11 02:52:32;;;;;;;7.80;1.08;;;27.00;88.00;;;;;;5013055;28;20065;-73
2022/03/11 02:55:00;;;;;;;8.52;2.55;;;27.20;87.40;;;;;;5012919;28;20105;-73
2022/03/11 02:57:27;;;;;;;7.70;1.20;;;27.30;87.30;;;;;;5012598;28;20022;-71
2022/03/11 02:59:54;;;;;;;7.03;2.00;;;27.70;87.70;;;;;;5012770;28;20018;-71
2022/03/11 03:02:21;;;;;;;6.53;1.08;;;28.00;85.70;;;;;;5012734;28;20081;-72
2022/03/11 03:04:49;;;;;;;9.73;1.95;;;28.30;84.80;;;;;;5012432;28;20022;-73
2022/03/11 03:07:16;;;;;;;7.72;2.20;;;28.60;83.70;;;;;;5011507;28;20493;-71
2022/03/11 03:09:43;;;;;;;7.35;1.38;;;28.90;84.20;;;;;;5011970;28;20053;-73
2022/03/11 03:12:11;;;;;;;6.75;1.50;;;29.50;83.00;;;;;;5011984;28;20060;-72
2022/03/11 03:14:39;;;;;;;6.35;1.15;;;30.10;83.50;;;;;;5012637;28;20640;-72
2022/03/11 03:17:07;;;;;;;10.05;1.98;;;30.50;82.00;;;;;;5012130;28;20030;-72
2022/03/11 03:19:35;;;;;;;8.77;1.30;;;30.80;79.30;;;;;;5011933;28;20018;-70
2022/03/11 03:22:04;;;;;;;7.18;1.27;;;30.90;77.70;;;;;;5011741;28;20026;-70
2022/03/11 03:24:31;;;;;;;11.13;1.60;;;31.20;77.60;;;;;;5012126;28;20038;-70
2022/03/11 03:26:59;;;;;;;5.50;1.02;;;31.40;77.80;;;;;;5012379;28;20029;-70
2022/03/11 03:29:26;;;;;;;6.80;1.10;;;31.70;76.90;;;;;;5011290;28;20033;-71
2022/03/11 03:31:57;;;;;;;5.45;1.42;;;31.90;75.80;;;;;;5012271;28;20461;-69
2022/03/11 03:34:33;;;;;;;7.30;1.02;;;32.10;73.90;;;;;;5012382;28;20028;-69
2022/03/11 03:37:02;;;;;;;9.98;1.42;;;31.80;75.70;;;;;;5011932;28;20022;-70
2022/03/11 03:39:29;;;;;;;13.38;3.05;;;32.10;74.20;;;;;;5012077;28;20482;-69
2022/03/11 03:41:57;;;;;;;6.35;1.88;;;32.20;73.20;;;;;;5012045;28;20096;-71
2022/03/11 03:44:24;;;;;;;8.20;1.85;;;32.30;73.30;;;;;;5011952;28;20589;-69
2022/03/11 03:46:52;;;;;;;7.53;1.58;;;32.50;72.60;;;;;;5011640;28;20439;-69
2022/03/11 03:49:19;;;;;;;4.20;1.17;;;32.60;72.20;;;;;;5012015;28;20084;-69
2022/03/11 03:51:47;;;;;;;13.65;2.90;;;32.80;71.40;;;;;;5012197;28;20475;-68
2022/03/11 03:54:17;;;;;;;12.27;3.60;;;32.80;71.30;;;;;;5012051;28;20022;-68
2022/03/11 03:56:45;;;;;;;6.15;1.40;;;33.00;70.80;;;;;;5011708;28;20410;-68
2022/03/11 03:59:14;;;;;;;10.93;1.73;;;32.90;70.90;;;;;;5011679;28;20029;-72
2022/03/11 04:01:42;;;;;;;8.48;1.48;;;33.10;71.70;;;;;;5011696;28;20072;-70
2022/03/11 04:04:12;;;;;;;5.32;0.93;;;33.00;70.30;;;;;;5011658;28;20096;-68
2022/03/11 04:06:42;;;;;;;6.90;1.58;;;33.10;70.80;;;;;;5011640;28;20125;-69
2022/03/11 04:09:12;;;;;;;8.13;0.90;;;32.90;71.10;;;;;;5010555;28;20048;-68
2022/03/11 04:11:43;;;;;;;4.63;0.88;;;33.30;70.20;;;;;;5011263;28;20049;-71
2022/03/11 04:14:11;;;;;;;7.53;1.27;;;33.00;69.20;;;;;;5011767;28;20096;-70
2022/03/11 04:16:38;;;;;;;8.40;1.27;;;32.90;68.00;;;;;;5012052;28;20030;-72
2022/03/11 04:19:05;;;;;;;6.05;1.30;;;33.00;67.80;;;;;;5011795;28;20503;-74
2022/03/11 04:21:34;;;;;;;7.25;1.42;;;33.00;67.30;;;;;;5010187;28;20441;-70
2022/03/11 04:24:02;;;;;;;9.07;0.90;;;32.20;68.50;;;;;;5010633;28;20033;-73
2022/03/11 04:26:30;;;;;;;6.93;1.60;;;30.90;70.90;;;;;;5009327;28;20117;-74
2022/03/11 04:28:57;;;;;;;4.68;0.80;;;29.90;73.70;;;;;;5010144;28;20018;-71
2022/03/11 04:31:25;;;;;;;10.18;1.25;;;29.30;74.70;;;;;;5011616;28;20101;-70
2022/03/11 04:33:52;;;;;;;6.65;0.80;;;29.00;75.60;;;;;;5011403;28;20022;-72
2022/03/11 04:36:20;;;;;;;7.88;1.17;;;28.60;74.80;;;;;;5010996;28;20019;-74
2022/03/11 04:38:47;;;;;;;6.93;1.15;;;28.10;76.50;;;;;;5011199;28;20065;-72
2022/03/11 04:41:15;;;;;;;7.30;1.25;;;27.80;77.20;;;;;;5005054;28;20475;-72
2022/03/11 04:43:45;;;;;;;7.25;1.67;;;27.90;78.70;;;;;;5010464;28;20099;-71
2022/03/11 04:46:12;;;;;;;3.33;0.60;;;28.90;79.10;;;;;;5009130;28;20022;-70
2022/03/11 04:48:41;;;;;;;6.78;1.98;;;29.70;76.80;;;;;;5006392;28;20504;-72
2022/03/11 04:51:08;;;;;;;7.47;1.95;;;30.50;73.20;;;;;;5006132;28;20022;-70
2022/03/11 04:53:35;;;;;;;4.28;1.17;;;31.20;70.60;;;;;;5009361;28;20041;-71
2022/03/11 04:56:03;;;;;;;6.07;1.00;;;31.90;69.70;;;;;;5010533;28;20037;-70
2022/03/11 04:58:33;;;;;;;7.07;1.10;;;32.50;68.80;;;;;;5010582;28;20482;-71
2022/03/11 05:01:00;;;;;;;6.25;1.30;;;33.20;67.60;;;;;;5010487;28;20029;-72
2022/03/11 05:03:30;;;;;;;9.52;1.00;;;33.70;65.20;;;;;;5010402;28;20033;-75
2022/03/11 05:05:57;;;;;;;6.40;0.93;;;33.90;65.30;;;;;;5010436;28;20101;-74
2022/03/11 05:08:25;;;;;;;6.75;0.98;;;33.80;65.10;;;;;;5010258;28;20386;-73
2022/03/11 05:10:53;;;;;;;6.82;0.98;;;33.70;65.60;;;;;;5008705;28;20781;-72
2022/03/11 05:13:20;;;;;;;4.93;0.88;;;33.90;64.30;;;;;;5010411;28;20037;-73
2022/03/11 05:15:47;;;;;;;6.55;0.90;;;34.20;63.70;;;;;;5010083;28;20025;-71
2022/03/11 05:18:14;;;;;;;4.50;1.08;;;34.60;62.80;;;;;;5009875;28;20049;-70
2022/03/11 05:20:42;;;;;;;4.35;0.80;;;34.60;63.30;;;;;;5012054;28;20025;-72
2022/03/11 05:23:09;;;;;;;5.28;0.70;;;35.00;63.30;;;;;;5013897;28;20041;-70
2022/03/11 05:25:36;;;;;;;4.20;0.98;;;35.00;64.00;;;;;;5014030;28;20105;-72
2022/03/11 05:28:04;;;;;;;3.28;1.00;;;34.10;63.20;;;;;;5013928;28;20021;-69
2022/03/11 05:30:31;;;;;;;5.72;1.02;;;32.60;65.10;;;;;;5008694;28;20117;-70
2022/03/11 05:32:59;;;;;;;4.35;1.58;;;31.30;66.80;;;;;;5011518;28;20081;-70
2022/03/11 05:35:26;;;;;;;7.22;1.77;;;30.00;69.40;;;;;;5013352;28;20103;-73
2022/03/11 05:37:53;;;;;;;7.13;1.20;;;29.00;71.70;;;;;;5013646;28;20022;-73
2022/03/11 05:40:20;;;;;;;5.10;0.73;;;28.40;73.20;;;;;;5013477;28;20018;-69
2022/03/11 05:42:48;;;;;;;7.97;0.88;;;27.90;74.30;;;;;;5013264;28;20048;-71
2022/03/11 05:45:15;;;;;;;5.90;0.80;;;27.60;74.80;;;;;;5013072;28;20109;-71
2022/03/11 05:47:42;;;;;;;5.72;0.98;;;26.90;76.90;;;;;;5013277;28;20029;-69
2022/03/11 05:50:10;;;;;;;6.60;1.10;;;26.50;78.20;;;;;;5013236;28;20018;-69
2022/03/11 05:52:39;;;;;;;6.05;0.80;;;26.30;78.90;;;;;;5013333;28;20032;-72
2022/03/11 05:55:08;;;;;;;4.63;0.80;;;26.00;78.60;;;;;;5013468;28;20079;-72
2022/03/11 05:57:35;;;;;;;5.95;0.77;;;25.90;80.30;;;;;;5013048;28;20079;-68
2022/03/11 06:00:05;;;;;;;5.50;0.90;;;25.90;79.90;;;;;;5013559;28;20026;-70
2022/03/11 06:02:32;;;;;;;4.35;1.05;;;25.80;79.50;;;;;;5013765;28;20443;-71
2022/03/11 06:05:00;;;;;;;4.75;1.10;;;25.70;81.40;;;;;;5013062;28;20033;-72
2022/03/11 06:07:27;;;;;;;4.32;1.00;;;25.70;82.00;;;;;;5012322;28;20032;-71
2022/03/11 06:09:54;;;;;;;8.95;1.17;;;25.70;82.30;;;;;;5012530;28;20077;-71
2022/03/11 06:12:22;;;;;;;6.35;1.15;;;25.70;82.80;;;;;;5013135;28;20478;-71
2022/03/11 06:14:49;;;;;;;5.82;1.63;;;25.60;83.10;;;;;;5012955;28;20467;-72
2022/03/11 06:17:17;;;;;;;7.95;1.65;;;25.50;83.60;;;;;;5012843;28;20709;-73
2022/03/11 06:19:44;;;;;;;9.02;1.85;;;25.30;84.50;;;;;;5013125;28;20029;-72
2022/03/11 06:22:11;;;;;;;6.93;1.13;;;25.30;84.90;;;;;;5013151;28;20482;-71
2022/03/11 06:24:39;;;;;;;6.78;0.80;;;25.10;84.80;;;;;;5013090;28;20554;-69
2022/03/11 06:27:06;;;;;;;7.28;1.00;;;25.00;85.50;;;;;;5012772;28;20042;-70
2022/03/11 06:29:33;;;;;;;5.15;0.85;;;25.30;85.50;;;;;;5012050;28;20072;-71
2022/03/11 06:32:00;;;;;;;6.80;1.17;;;25.70;84.50;;;;;;5011974;28;20020;-72
2022/03/11 06:34:29;;;;;;;6.78;0.93;;;26.60;82.60;;;;;;5012985;28;20030;-70
2022/03/11 06:36:56;;;;;;;4.93;0.90;;;27.70;78.60;;;;;;5012332;28;20025;-69
2022/03/11 06:39:24;;;;;;;6.25;1.20;;;27.90;78.30;;;;;;5012369;28;20029;-71
2022/03/11 06:41:51;;;;;;;6.20;0.80;;;28.00;77.40;;;;;;5012372;28;20029;-69
2022/03/11 06:44:18;;;;;;;7.50;1.33;;;28.30;78.00;;;;;;5012031;28;20236;-69
2022/03/11 06:46:48;;;;;;;6.35;1.20;;;28.40;76.50;;;;;;4995703;28;20068;-71
2022/03/11 06:49:16;;;;;;;6.78;0.77;;;27.80;77.10;;;;;;5012185;28;20038;-70
2022/03/11 06:51:43;;;;;;;7.82;1.27;;;28.10;76.80;;;;;;5012762;28;20029;-72
2022/03/11 06:54:10;;;;;;;4.07;0.65;;;28.60;75.60;;;;;;5012384;28;20051;-71
2022/03/11 06:56:38;;;;;;;5.18;1.05;;;29.10;74.40;;;;;;5011937;28;20022;-70
2022/03/11 06:59:06;;;;;;;6.80;1.30;;;29.40;73.90;;;;;;5012145;28;20108;-71
2022/03/11 07:01:33;;;;;;;9.60;1.55;;;29.10;74.00;;;;;;5011905;28;20080;-70
2022/03/11 07:04:02;;;;;;;6.07;1.02;;;28.70;74.90;;;;;;5005389;28;20026;-72
2022/03/11 07:06:29;;;;;;;9.50;1.70;;;27.80;75.90;;;;;;5011943;28;20101;-69
2022/03/11 07:08:57;;;;;;;9.10;1.23;;;27.20;78.00;;;;;;5011637;28;20052;-71
2022/03/11 07:11:24;;;;;;;6.35;1.17;;;26.60;79.20;;;;;;5010492;28;20508;-71
2022/03/11 07:13:51;;;;;;;6.95;1.15;;;26.00;80.40;;;;;;5010775;28;20375;-71
2022/03/11 07:16:19;;;;;;;4.47;1.00;;;25.40;82.30;;;;;;5012170;28;20140;-70
2022/03/11 07:18:46;;;;;;;7.97;1.05;;;24.90;84.30;;;;;;5011806;28;20085;-68
2022/03/11 07:21:13;;;;;;;6.97;1.58;;;24.70;85.00;;;;;;5010812;28;20504;-72
2022/03/11 07:23:41;;;;;;;6.93;1.15;;;24.30;86.30;;;;;;5011044;28;20420;-72
2022/03/11 07:26:08;;;;;;;5.43;1.83;;;24.00;87.30;;;;;;5010558;28;20029;-71
2022/03/11 07:28:35;;;;;;;6.28;1.45;;;23.80;87.50;;;;;;5007988;28;20105;-70
2022/03/11 07:31:03;;;;;;;7.18;1.63;;;23.60;88.10;;;;;;5010842;28;20018;-71
2022/03/11 07:33:30;;;;;;;4.80;1.20;;;23.40;88.80;;;;;;5010866;28;20018;-69
2022/03/11 07:35:59;;;;;;;9.13;1.77;;;23.40;89.80;;;;;;5010938;28;20335;-70
2022/03/11 07:38:30;;;;;;;4.63;1.33;;;23.30;89.70;;;;;;5008601;28;20022;-69
2022/03/11 07:41:01;;;;;;;7.90;1.52;;;23.30;89.70;;;;;;5010263;28;20470;-69
2022/03/11 07:43:28;;;;;;;10.63;1.73;;;23.40;90.20;;;;;;5009372;28;20053;-71
2022/03/11 07:45:56;;;;;;;9.00;1.80;;;23.40;89.80;;;;;;5009531;28;20030;-69
2022/03/11 07:48:23;;;;;;;4.68;1.40;;;23.40;90.10;;;;;;5011187;28;20025;-70
2022/03/11 07:50:50;;;;;;;7.30;1.17;;;23.30;89.30;;;;;;5010130;28;20023;-69
2022/03/11 07:53:17;;;;;;;5.05;1.52;;;23.30;89.00;;;;;;5010953;28;20036;-70
2022/03/11 07:55:45;;;;;;;7.90;1.75;;;23.30;89.60;;;;;;5011536;28;20029;-73
2022/03/11 07:58:12;;;;;;;10.27;1.88;;;23.20;90.00;;;;;;5011475;28;20032;-74
2022/03/11 08:00:42;;;;;;;5.70;2.28;;;23.10;90.40;;;;;;5011634;28;20041;-72
2022/03/11 08:03:09;;;;;;;7.97;2.53;;;23.00;90.50;;;;;;5011445;28;20022;-73
2022/03/11 08:05:36;;;;;;;9.68;2.95;;;23.00;90.70;;;;;;5010608;28;20029;-71
2022/03/11 08:08:04;;;;;;;8.55;2.13;;;22.90;90.80;;;;;;5010833;28;20052;-74
2022/03/11 08:10:36;;;;;;;7.00;2.05;;;22.90;90.70;;;;;;5011893;28;20585;-71
2022/03/11 08:13:06;;;;;;;10.07;2.40;;;22.70;90.90;;;;;;5011704;28;20026;-73
2022/03/11 08:15:35;;;;;;;8.48;3.15;;;22.70;91.50;;;;;;5011006;28;20037;-73
2022/03/11 08:18:03;;;;;;;4.53;1.77;;;22.60;91.30;;;;;;5006037;28;20038;-71
2022/03/11 08:20:31;;;;;;;8.02;2.83;;;22.60;91.60;;;;;;5009522;28;20118;-72
2022/03/11 08:22:58;;;;;;;8.63;3.17;;;22.60;91.60;;;;;;5010846;28;20041;-73
2022/03/11 08:25:29;;;;;;;9.23;3.20;;;22.60;91.90;;;;;;5010183;28;20018;-74
2022/03/11 08:27:57;;;;;;;6.90;2.70;;;22.60;91.70;;;;;;5009570;28;20386;-73
2022/03/11 08:30:25;;;;;;;13.43;3.35;;;22.50;91.70;;;;;;5010824;28;20049;-70
2022/03/11 08:32:53;;;;;;;11.40;3.42;;;22.50;91.60;;;;;;5010554;28;20022;-72
2022/03/11 08:35:21;;;;;;;7.68;2.33;;;22.50;91.80;;;;;;5010831;28;20355;-73
2022/03/11 08:37:49;;;;;;;6.50;2.50;;;22.50;91.90;;;;;;5009216;28;20049;-73
2022/03/11 08:40:22;;;;;;;6.82;3.45;;;22.50;92.20;;;;;;5010100;28;20430;-75
2022/03/11 08:42:50;;;;;;;11.13;3.90;;;22.60;92.40;;;;;;5009440;28;20033;-72
2022/03/11 08:45:20;;;;;;;8.85;2.97;;;22.60;92.20;;;;;;5010709;28;20382;-71
2022/03/11 08:47:51;;;;;;;11.20;3.83;;;22.60;92.10;;;;;;5010677;28;20024;-73
2022/03/11 08:50:21;;;;;;;7.35;2.53;;;22.50;92.20;;;;;;5011636;28;20520;-74
2022/03/11 08:52:49;;;;;;;9.25;2.08;;;22.50;92.40;;;;;;5010002;28;20083;-72
2022/03/11 08:55:16;;;;;;;8.63;1.83;;;22.50;92.60;;;;;;5012309;28;20097;-74
2022/03/11 08:57:51;;;;;;;12.45;3.28;;;22.50;92.80;;;;;;5013028;28;20053;-75
2022/03/11 09:00:20;;;;;;;7.57;2.25;;;22.50;93.30;;;;;;5014422;28;20478;-74
2022/03/11 09:02:48;;;;;;;16.20;3.30;;;22.50;93.20;;;;;;5014477;28;20038;-74
2022/03/11 09:05:18;;;;;;;8.85;3.53;;;22.50;93.40;;;;;;5014704;28;20022;-73
2022/03/11 09:07:47;;;;;;;10.18;2.95;;;22.50;93.40;;;;;;5014259;28;20104;-73
2022/03/11 09:10:18;;;;;;;9.70;3.25;;;22.40;93.50;;;;;;5014597;28;20398;-73
2022/03/11 09:12:46;;;;;;;7.55;2.53;;;22.40;93.40;;;;;;5014264;28;20022;-73
2022/03/11 09:15:14;;;;;;;8.95;4.30;;;22.30;93.70;;;;;;5014823;28;20025;-72
2022/03/11 09:17:45;;;;;;;13.10;3.97;;;22.30;93.70;;;;;;5014242;28;20103;-71
2022/03/11 09:20:14;;;;;;;8.88;3.20;;;22.20;94.00;;;;;;5014854;28;20026;-70
2022/03/11 09:22:42;;;;;;;9.65;2.90;;;22.20;94.10;;;;;;5014552;28;20053;-72
2022/03/11 09:25:11;;;;;;;8.88;3.00;;;22.10;94.10;;;;;;5014487;28;20061;-73
2022/03/11 09:27:39;;;;;;;7.38;1.92;;;22.10;94.10;;;;;;5014005;28;20018;-72
2022/03/11 09:30:09;;;;;;;7.88;2.05;;;22.10;94.00;;;;;;5014528;28;20069;-72
2022/03/11 09:32:37;;;;;;;10.38;2.38;;;22.10;94.20;;;;;;5012211;28;20520;-73
2022/03/11 09:35:06;;;;;;;5.72;2.05;;;22.00;94.30;;;;;;5012072;28;20022;-74
2022/03/11 09:37:34;;;;;;;6.35;2.10;;;22.10;94.50;;;;;;5013805;28;20030;-74
2022/03/11 09:40:01;;;;;;;6.53;2.33;;;22.10;94.70;;;;;;5014113;28;20025;-72
2022/03/11 09:42:29;;;;;;;10.77;2.65;;;22.20;94.40;;;;;;5020703;28;20037;-72
2022/03/11 09:44:58;;;;;;;8.20;2.63;;;22.20;94.50;;;;;;5013742;28;20026;-74
2022/03/11 09:47:26;;;;;;;8.20;3.22;;;22.20;94.60;;;;;;5013421;28;20014;-72
2022/03/11 09:49:54;;;;;;;11.80;2.80;;;22.20;94.60;;;;;;4994279;28;20760;-72
2022/03/11 09:52:23;;;;;;;10.90;3.40;;;22.30;94.60;;;;;;4994384;28;20027;-73
2022/03/11 09:54:51;;;;;;;10.55;3.60;;;22.20;94.70;;;;;;5013559;28;20053;-72
2022/03/11 09:57:23;;;;;;;12.18;5.00;;;22.20;94.70;;;;;;5013193;28;20401;-72
2022/03/11 09:59:51;;;;;;;12.88;3.35;;;22.30;95.20;;;;;;5012820;28;20029;-71
2022/03/11 10:02:19;;;;;;;7.65;2.95;;;22.30;94.90;;;;;;5011893;28;20437;-73
2022/03/11 10:04:52;;;;;;;13.38;3.03;;;22.30;94.90;;;;;;5013316;28;20034;-72
2022/03/11 10:07:30;;;;;;;6.88;1.77;;;22.20;94.80;;;;;;5012632;28;20080;-72
2022/03/11 10:10:12;;;;;;;9.90;1.70;;;22.20;95.10;;;;;;4993986;28;20080;-72
2022/03/11 10:12:43;;;;;;;7.70;1.42;;;22.20;94.90;;;;;;5012910;28;20527;-72
2022/03/11 10:15:11;;;;;;;5.93;1.13;;;22.20;95.00;;;;;;5013178;28;20025;-72
2022/03/11 10:17:46;;;;;;;5.13;1.30;;;22.20;94.90;;;;;;5012965;28;20084;-72
2022/03/11 10:20:17;;;;;;;8.02;1.10;;;22.20;94.80;;;;;;5013102;28;20030;-73
2022/03/11 10:22:45;;;;;;;7.20;1.08;;;22.20;94.70;;;;;;5012497;28;20026;-72
2022/03/11 10:25:23;;;;;;;8.70;1.38;;;22.20;94.50;;;;;;5012974;28;20064;-72
2022/03/11 10:27:57;;;;;;;5.05;1.80;;;22.20;94.50;;;;;;5012961;28;20025;-71
2022/03/11 10:30:26;;;;;;;7.13;2.42;;;22.20;94.70;;;;;;5013135;28;20052;-71
2022/03/11 10:32:55;;;;;;;7.80;1.70;;;22.30;94.90;;;;;;5013088;28;20032;-72
2022/03/11 10:35:36;;;;;;;9.30;2.17;;;22.20;94.50;;;;;;5012544;28;20025;-73
2022/03/11 10:38:07;;;;;;;8.97;2.30;;;22.10;94.50;;;;;;5012896;28;20446;-72
2022/03/11 10:40:40;;;;;;;8.15;1.95;;;22.10;94.40;;;;;;5011005;28;20771;-72
2022/03/11 10:43:16;;;;;;;7.05;2.60;;;22.00;94.50;;;;;;5012355;28;20124;-73
2022/03/11 10:45:49;;;;;;;7.60;2.38;;;22.10;94.80;;;;;;5011233;28;20026;-70
2022/03/11 10:48:17;;;;;;;9.90;1.80;;;22.00;94.60;;;;;;5012766;28;20024;-71
2022/03/11 10:50:45;;;;;;;11.23;2.20;;;21.90;94.70;;;;;;5012814;28;20474;-71
2022/03/11 10:53:13;;;;;;;9.15;2.00;;;21.90;94.70;;;;;;5012808;28;20040;-70
2022/03/11 10:55:42;;;;;;;5.05;1.75;;;21.90;95.00;;;;;;5012194;28;20026;-72
2022/03/11 10:58:16;;;;;;;5.75;1.77;;;21.80;95.00;;;;;;5012095;28;20086;-72
2022/03/11 11:00:44;;;;;;;6.22;2.13;;;21.80;94.90;;;;;;5012294;28;20490;-73
2022/03/11 11:03:13;;;;;;;6.85;2.10;;;21.70;94.80;;;;;;5012479;28;20038;-73
2022/03/11 11:05:41;;;;;;;6.40;2.20;;;21.70;94.80;;;;;;5012440;28;20018;-72
2022/03/11 11:08:09;;;;;;;4.78;1.33;;;21.60;94.60;;;;;;5012094;28;20382;-72
2022/03/11 11:10:38;;;;;;;7.50;1.48;;;21.60;94.80;;;;;;5012409;28;20030;-73
2022/03/11 11:13:06;;;;;;;5.25;2.13;;;21.70;95.10;;;;;;5012148;28;20056;-72
2022/03/11 11:15:33;;;;;;;8.70;2.17;;;21.60;95.10;;;;;;5012335;28;20030;-72
2022/03/11 11:18:07;;;;;;;6.13;1.33;;;21.60;95.20;;;;;;5011729;28;20014;-72
2022/03/11 11:20:45;;;;;;;5.63;1.50;;;21.60;95.20;;;;;;5012153;28;20382;-72
2022/03/11 11:23:12;;;;;;;5.25;1.40;;;21.50;95.50;;;;;;5011666;28;20129;-73
2022/03/11 11:25:43;;;;;;;7.47;1.65;;;21.40;95.30;;;;;;5011745;28;20025;-72
2022/03/11 11:28:19;;;;;;;7.63;1.73;;;21.40;95.70;;;;;;5011827;28;20568;-74
2022/03/11 11:30:47;;;;;;;4.60;1.27;;;21.40;95.50;;;;;;5010540;28;20088;-73
2022/03/11 11:33:15;;;;;;;10.02;1.92;;;21.30;95.40;;;;;;5011669;28;20029;-72
2022/03/11 11:35:44;;;;;;;9.55;1.83;;;21.30;95.30;;;;;;5011491;28;21179;-72
2022/03/11 11:38:29;;;;;;;6.75;1.70;;;21.20;95.00;;;;;;5011668;28;20026;-71
2022/03/11 11:40:58;;;;;;;8.15;2.88;;;21.10;95.40;;;;;;5011903;28;20045;-72
2022/03/11 11:43:31;;;;;;;9.43;1.80;;;21.10;95.40;;;;;;5011431;28;20503;-71
2022/03/11 11:46:12;;;;;;;4.82;1.75;;;21.10;95.70;;;;;;5011055;28;20484;-74
2022/03/11 11:48:41;;;;;;;9.63;2.03;;;21.10;95.90;;;;;;5011231;28;20033;-73
2022/03/11 11:51:10;;;;;;;9.07;2.63;;;21.10;96.30;;;;;;5012058;28;20018;-73
2022/03/11 11:53:42;;;;;;;6.93;2.92;;;21.20;96.40;;;;;;5011522;28;20022;-73
2022/03/11 11:56:31;;;;;;;7.72;2.05;;;21.20;96.60;;;;;;5011735;28;20021;-73
2022/03/11 11:59:02;;;;;;;5.60;1.95;;;21.20;96.70;;;;;;5010932;28;20494;-72
2022/03/11 12:01:42;;;;;;;7.43;1.95;;;21.10;96.90;;;;;;5010843;28;20355;-75
2022/03/11 12:04:38;;;;;;;6.95;1.95;;;21.10;97.20;;;;;;5010925;28;20034;-74
2022/03/11 12:07:09;;;;;;;7.85;2.10;;;21.00;97.20;;;;;;5011172;28;20018;-72
2022/03/11 12:09:51;;;;;;;7.40;1.90;;;21.10;97.60;;;;;;5010892;28;20077;-74
2022/03/11 12:12:21;;;;;;;11.03;3.20;;;21.00;97.80;;;;;;5012111;28;20068;-72
2022/03/11 12:15:01;;;;;;;8.38;2.13;;;21.00;98.10;;;;;;5011872;28;20058;-73
2022/03/11 12:17:43;;;;;;;4.75;1.83;;;21.00;98.20;;;;;;5011105;28;20014;-75
2022/03/11 12:20:28;;;;;;;;;;;21.00;98.70;;;;;;5011794;28;20036;-73
2022/03/11 12:23:05;;;;;;;10.57;3.08;;;21.10;98.60;;;;;;5011100;28;19920;-73
2022/03/11 12:25:34;;;;;;;6.65;2.35;;;21.00;98.80;;;;;;5011391;28;20022;-73
2022/03/11 12:28:07;;;;;;;7.97;2.85;;;21.00;98.70;;;;;;5011609;28;20022;-72
2022/03/11 12:30:35;;;;;;;8.80;2.22;;;21.00;98.70;;;;;;5015377;28;20017;-73
2022/03/11 12:33:08;;;;;;;8.30;2.35;;;21.00;98.70;;;;;;5015856;28;20371;-71
2022/03/11 12:35:36;;;;;;;10.15;2.47;;;20.90;98.90;;;;;;5015209;28;20036;-71
2022/03/11 12:38:04;;;;;;;7.15;2.13;;;20.90;99.10;;;;;;5015065;28;20022;-71
2022/03/11 12:40:33;;;;;;;8.65;2.53;;;20.80;99.30;;;;;;5015217;28;20017;-72
2022/03/11 12:43:05;;;;;;;7.93;2.30;;;20.80;99.50;;;;;;5014264;28;20030;-72
2022/03/11 12:45:40;;;;;;;7.95;2.35;;;20.70;99.60;;;;;;5015180;28;20116;-71
2022/03/11 12:48:11;;;;;;;8.02;2.28;;;20.70;99.70;;;;;;5015150;28;20479;-71
2022/03/11 12:50:39;;;;;;;6.57;2.60;;;20.70;99.90;;;;;;5015281;28;20033;-70
2022/03/11 12:53:08;;;;;;;8.30;2.92;;;20.70;99.90;;;;;;5014919;28;20446;-70